KFAF/FAF METAR and TAF weather

Enter ICAO airport designator
Station Type Date Time Source
KFAF METAR 2019/05/25 14:56 UTC NOAA

KFAF 251456Z AUTO 17005KT 10SM CLR 25/17 A3017 RMK AO2 SLP220 T02500174 50006 $


Station Type Date Time Source
KFAF Decoded METAR 2019/05/25 14:56 UTC NOAA

Fort Eustis / Felker, VA, United States (KFAF) 37-08N 076-37W
May 25, 2019 - 10:56 AM EDT / 2019.05.25 1456 UTC
Wind: from the S (170 degrees) at 6 MPH (5 KT):0
Visibility: 10 mile(s):0
Sky conditions: clear
Temperature: 77.0 F (25.0 C)
Dew Point: 63.3 F (17.4 C)
Relative Humidity: 62%
Pressure (altimeter): 30.17 in. Hg (1021 hPa)
Pressure tendency: 0.02 inches (0.6 hPa) higher than three hours ago
ob: KFAF 251456Z AUTO 17005KT 10SM CLR 25/17 A3017 RMK AO2 SLP220 T02500174 50006
cycle: 15

Station Type Date Time Source
KFAF TAF 2019/05/24 18:59 UTC NOAA

TAF KFAF 241800Z 2418/2524 30012G18KT 9999 FEW030 FEW180 QNH2997INS
BECMG 2420/2421 36009KT 9999 SKC QNH2996INS
BECMG 2515/2516 11006KT 9999 FEW030 QNH3014INS TX31/2418Z TN19/2511Z

Example: see airport list